»·PEaware :: N690B KLGB-KCRQ

N690B :: KLGB-KCRQ

FLIGHT INFORMATION

Flight Status: Arrived
Operator: Privately registered:
United States
More flights under this callsign
Pilot: Kaloso N. (23070)
Aircraft: BEECH AIRCRAFT BARON
(BE58)
More flights by this aircraft type
Origin: KLGB Long Beach
United States
Destination: KCRQ McClellan-Palomar
United States
More flights between these airports :: More routes between these airports
Route: V23 OCN
File this flight plan on PilotEdge
Remarks: NO SID / NO STAR / VECTOR ILS 24
Altitude:
(Current/Filed)
5,500ft
Speed:
(Current/Filed)
150kts
Departed: 24-May-19 06:36 PM
Arrived: 24-May-19 07:07 PM
Distance/Time
Traveled:
60nm/0:30
Distance/Time
To Go:
Arrived

Flight Plot

Page will automatically refresh every two minutes.

Flight plan parsing failed; only flown route is shown


Map Options




Map Legend


Flown Route
Filed Route
Departure Airport
Arrival Airport
Navaid (VOR, NDB)
Fix

Horizontal Profiles

Position Reports

Time Latitude Longitude Heading Altitude Ground
Speed
24-May-19 18:02 33.812114 -118.150879 90 39ft 0kts
24-May-19 18:03 33.812114 -118.150879 90 39ft 0kts
24-May-19 18:04 33.812114 -118.150879 90 39ft 0kts
24-May-19 18:05 33.812114 -118.150879 90 39ft 0kts
24-May-19 18:06 33.812114 -118.150879 90 39ft 0kts
24-May-19 18:07 33.812114 -118.150879 90 39ft 0kts
24-May-19 18:08 33.812114 -118.150879 90 39ft 0kts
24-May-19 18:09 33.812114 -118.150879 90 39ft 0kts
24-May-19 18:10 33.812114 -118.150879 90 39ft 0kts
24-May-19 18:11 33.812114 -118.150879 90 39ft 0kts
24-May-19 18:12 33.812114 -118.150879 90 39ft 0kts
24-May-19 18:13 33.812114 -118.150879 90 39ft 0kts
24-May-19 18:14 33.812114 -118.150879 90 39ft 0kts
24-May-19 18:15 33.812114 -118.150879 90 39ft 0kts
24-May-19 18:16 33.812114 -118.150879 90 39ft 0kts
24-May-19 18:17 33.812114 -118.150879 90 39ft 0kts
24-May-19 18:18 33.812114 -118.150879 90 39ft 0kts
24-May-19 18:19 33.812114 -118.150879 90 39ft 0kts
24-May-19 18:20 33.812114 -118.150879 90 39ft 0kts
24-May-19 18:21 33.812114 -118.150879 90 39ft 0kts
24-May-19 18:22 33.812114 -118.150879 90 39ft 0kts
24-May-19 18:23 33.812114 -118.150879 90 39ft 0kts
24-May-19 18:24 33.812114 -118.150879 90 39ft 0kts
24-May-19 18:25 33.812114 -118.150879 90 39ft 0kts
24-May-19 18:26 33.812114 -118.150879 90 39ft 0kts
24-May-19 18:27 33.812114 -118.150879 90 39ft 0kts
24-May-19 18:28 33.812319 -118.150533 41 38ft 10kts
24-May-19 18:29 33.813086 -118.148994 87 37ft 0kts
24-May-19 18:30 33.813102 -118.148371 89 37ft 12kts
24-May-19 18:31 33.811136 -118.144883 129 31ft 0kts
24-May-19 18:32 33.809302 -118.142731 135 29ft 27kts
24-May-19 18:33 33.806477 -118.139102 92 27ft 0kts
24-May-19 18:34 33.806477 -118.139102 92 27ft 0kts
24-May-19 18:35 33.812072 -118.144307 315 41ft 109kts
24-May-19 18:36 33.818520 -118.175369 217 1715ft 106kts
24-May-19 18:37 33.791175 -118.197295 213 3068ft 128kts
24-May-19 18:38 33.753591 -118.226956 213 3015ft 178kts
24-May-19 18:39 33.715967 -118.224339 115 3683ft 157kts
24-May-19 18:40 33.698757 -118.177358 113 4526ft 153kts
24-May-19 18:41 33.683462 -118.135240 113 5418ft 143kts
24-May-19 18:42 33.669639 -118.097173 113 5483ft 171kts
24-May-19 18:43 33.651341 -118.046813 113 5119ft 197kts
24-May-19 18:44 33.625497 -117.975570 113 5064ft 183kts
24-May-19 18:45 33.605106 -117.919326 113 5065ft 182kts
24-May-19 18:46 33.585290 -117.864642 113 5065ft 182kts
24-May-19 18:47 33.565038 -117.808727 113 5056ft 183kts
24-May-19 18:48 33.534629 -117.764711 131 5056ft 182kts
24-May-19 18:49 33.501623 -117.720452 131 5056ft 182kts
24-May-19 18:50 33.468323 -117.675778 131 5056ft 182kts
24-May-19 18:51 33.434059 -117.631035 134 5056ft 182kts
24-May-19 18:52 33.397849 -117.589424 137 5056ft 182kts
24-May-19 18:53 33.362058 -117.550483 137 5055ft 182kts
24-May-19 18:55 33.324429 -117.509528 137 5038ft 183kts
24-May-19 18:56 33.286760 -117.468528 137 5038ft 183kts
24-May-19 18:57 33.251851 -117.430528 137 5038ft 182kts
24-May-19 18:58 33.213519 -117.388801 137 5038ft 183kts
24-May-19 18:59 33.175946 -117.347888 137 4971ft 186kts
24-May-19 19:00 33.167103 -117.288415 91 4072ft 206kts
24-May-19 19:01 33.165719 -117.224375 91 3188ft 208kts
24-May-19 19:02 33.162609 -117.159950 118 2965ft 189kts
24-May-19 19:03 33.133084 -117.173237 279 2917ft 136kts
24-May-19 19:04 33.137460 -117.216321 254 1304ft 125kts
24-May-19 19:05 33.132823 -117.249502 258 777ft 86kts
24-May-19 19:06 33.128551 -117.278238 261 309ft 67kts
24-May-19 19:07 33.128798 -117.282841 357 312ft 9kts
24-May-19 19:08 33.129015 -117.282857 350 312ft 0kts
24-May-19 19:09 33.129015 -117.282857 350 312ft 0kts
24-May-19 19:10 33.129015 -117.282857 350 312ft 0kts
24-May-19 19:11 33.129015 -117.282857 350 312ft 0kts
24-May-19 19:12 33.129015 -117.282857 350 312ft 0kts
24-May-19 19:13 33.129015 -117.282857 350 312ft 0kts
24-May-19 19:14 33.129015 -117.282857 350 312ft 0kts
24-May-19 19:15 33.129015 -117.282857 350 312ft 0kts
24-May-19 19:15 33.129015 -117.282857 350 312ft 0kts
24-May-19 19:17 33.129015 -117.282857 350 312ft 0kts
24-May-19 19:18 33.129015 -117.282857 350 312ft 0kts
24-May-19 19:18 33.129015 -117.282857 350 312ft 0kts
24-May-19 19:20 33.129015 -117.282857 350 312ft 0kts
24-May-19 19:20 33.129015 -117.282857 350 312ft 0kts

Navigation Log

Ident Type
Flight plan parsing failed, navigation log unavailable